Time;durP1;ratioP1;P1;durP2;ratioP2;P2;SDS_P1;SDS_P2;PMS_P1;PMS_P2;Temp;Humidity;BMP_temperature;BMP_pressure;BME280_temperature;BME280_humidity;BME280_pressure;Samples;Min_cycle;Max_cycle;Signal;HPM_P1;HPM_P2
2022/11/13 00:02:21;;;;;;;104.57;19.67;;;;;;;8.40;57.79;100984.97;10349680;28;20768;-41
2022/11/13 00:07:22;;;;;;;86.60;20.07;;;;;;;8.69;57.08;100997.50;10369392;28;20266;-42
2022/11/13 00:12:24;;;;;;;121.27;20.30;;;;;;;7.74;59.30;100989.09;10364727;28;20230;-40
2022/11/13 00:17:27;;;;;;;147.83;21.63;;;;;;;8.55;57.29;100988.06;10377974;28;20592;-44
2022/11/13 00:22:29;;;;;;;80.43;20.07;;;;;;;8.29;57.40;100979.81;10370370;28;20232;-45
2022/11/13 00:27:30;;;;;;;116.87;20.33;;;;;;;8.14;57.39;100973.22;10366276;28;20623;-43
2022/11/13 00:32:32;;;;;;;85.50;18.63;;;;;;;7.79;58.16;100987.84;10375573;28;20243;-43
2022/11/13 00:37:34;;;;;;;39.90;17.53;;;;;;;7.73;58.40;100967.94;10362690;28;20263;-43
2022/11/13 00:42:35;;;;;;;108.97;19.77;;;;;;;7.26;58.31;100962.31;10370236;28;20327;-43
2022/11/13 00:47:37;;;;;;;83.23;19.90;;;;;;;6.63;61.30;100947.22;10369724;28;20611;-41
2022/11/13 00:52:39;;;;;;;53.90;19.63;;;;;;;7.05;59.87;100939.22;10356509;28;20244;-42
2022/11/13 00:57:40;;;;;;;96.67;21.97;;;;;;;7.76;58.30;100921.50;10355700;28;20210;-43
2022/11/13 01:02:42;;;;;;;97.63;20.77;;;;;;;7.32;60.19;100917.31;10361960;28;20232;-43
2022/11/13 01:07:44;;;;;;;156.07;22.53;;;;;;;7.15;59.76;100924.13;10364531;28;20229;-45
2022/11/13 01:12:45;;;;;;;83.47;19.80;;;;;;;7.60;59.19;100917.56;10363025;28;20235;-42
2022/11/13 01:17:48;;;;;;;60.73;19.77;;;;;;;7.10;59.00;100914.88;10357484;28;20722;-43
2022/11/13 01:22:49;;;;;;;71.90;20.27;;;;;;;7.91;58.17;100912.16;10356851;28;20613;-43
2022/11/13 01:27:51;;;;;;;101.30;20.63;;;;;;;6.79;59.15;100913.03;10356688;28;20240;-43
2022/11/13 01:32:53;;;;;;;82.63;21.03;;;;;;;6.85;59.93;100918.81;10361924;28;20229;-43
2022/11/13 01:37:54;;;;;;;59.93;20.40;;;;;;;8.73;56.81;100915.31;10364796;28;20271;-43
2022/11/13 01:42:56;;;;;;;72.37;20.90;;;;;;;7.10;59.89;100913.03;10362309;28;20243;-43
2022/11/13 01:47:58;;;;;;;109.20;23.17;;;;;;;6.99;60.77;100900.69;10359756;28;20237;-43
2022/11/13 01:53:00;;;;;;;55.53;20.83;;;;;;;8.13;58.71;100888.88;10351430;28;20236;-43
2022/11/13 01:58:04;;;;;;;83.63;21.50;;;;;;;6.65;59.94;100876.13;10371977;28;20230;-43
2022/11/13 02:03:06;;;;;;;88.80;21.07;;;;;;;6.85;60.31;100878.91;10368208;28;20229;-43
2022/11/13 02:08:08;;;;;;;69.23;22.30;;;;;;;8.19;57.99;100886.47;10354614;28;20261;-43
2022/11/13 02:13:11;;;;;;;50.20;19.97;;;;;;;9.44;55.16;100917.44;10365483;28;20272;-42
2022/11/13 02:18:15;;;;;;;94.67;20.20;;;;;;;7.15;59.71;100892.19;10360322;28;20216;-43
2022/11/13 02:23:29;;;;;;;42.53;18.73;;;;;;;8.15;57.23;100889.56;10360306;28;20244;-43
2022/11/13 02:28:31;;;;;;;75.67;20.83;;;;;;;7.25;59.35;100876.25;10369015;28;20224;-43
2022/11/13 02:33:33;;;;;;;52.33;20.67;;;;;;;8.37;57.67;100878.59;10362423;28;20365;-43
2022/11/13 02:38:35;;;;;;;40.97;19.90;;;;;;;8.24;57.52;100878.88;10357458;28;20238;-43
2022/11/13 02:43:37;;;;;;;29.90;18.63;;;;;;;8.53;57.06;100882.50;10364100;28;20236;-43
2022/11/13 02:48:38;;;;;;;81.33;21.27;;;;;;;7.99;58.36;100874.16;10360930;28;20631;-44
2022/11/13 02:53:40;;;;;;;64.07;20.47;;;;;;;7.26;58.68;100866.47;10359416;28;20237;-42
2022/11/13 02:58:42;;;;;;;67.03;21.30;;;;;;;6.71;60.63;100856.13;10352353;28;20233;-43
2022/11/13 03:03:43;;;;;;;72.73;22.27;;;;;;;6.50;61.20;100854.34;10356899;28;20641;-43
2022/11/13 03:09:00;;;;;;;54.90;21.23;;;;;;;7.81;57.63;100845.47;10348188;28;20243;-43
2022/11/13 03:14:02;;;;;;;51.53;20.50;;;;;;;7.70;58.33;100854.47;10352195;28;20731;-44
2022/11/13 03:19:04;;;;;;;66.33;19.03;;;;;;;8.35;56.86;100851.22;10358070;28;20232;-43
2022/11/13 03:24:06;;;;;;;30.00;18.47;;;;;;;7.38;58.92;100832.56;10359694;28;20708;-43
2022/11/13 03:29:07;;;;;;;28.30;17.83;;;;;;;7.38;58.41;100830.75;10363186;28;20233;-43
2022/11/13 03:34:09;;;;;;;32.07;17.63;;;;;;;7.51;58.53;100817.16;10353420;28;20244;-45
2022/11/13 03:39:10;;;;;;;36.13;18.87;;;;;;;6.34;59.41;100827.38;10356395;28;20244;-43
2022/11/13 03:44:13;;;;;;;27.97;18.37;;;;;;;8.23;57.07;100815.03;10358380;28;20228;-44
2022/11/13 03:49:15;;;;;;;33.60;17.93;;;;;;;6.82;59.94;100805.53;10365683;28;20225;-44
2022/11/13 03:54:16;;;;;;;27.50;16.97;;;;;;;6.90;59.01;100827.00;10379781;28;20240;-44
2022/11/13 03:59:18;;;;;;;28.07;17.17;;;;;;;6.49;59.78;100825.22;10368014;28;20252;-44
2022/11/13 04:04:20;;;;;;;27.67;18.60;;;;;;;7.43;58.96;100809.88;10364136;28;20229;-43
2022/11/13 04:09:21;;;;;;;32.97;18.50;;;;;;;7.93;57.32;100792.91;10355807;28;20745;-44
2022/11/13 04:14:23;;;;;;;40.00;19.27;;;;;;;5.92;60.10;100795.50;10369792;28;20228;-44
2022/11/13 04:19:25;;;;;;;32.73;19.90;;;;;;;6.96;58.72;100785.69;10360322;28;20233;-44
2022/11/13 04:24:26;;;;;;;36.97;20.23;;;;;;;5.91;61.17;100792.00;10360542;28;20238;-43
2022/11/13 04:29:28;;;;;;;34.53;20.73;;;;;;;6.88;59.12;100788.19;10371425;28;20237;-43
2022/11/13 04:34:30;;;;;;;38.50;21.47;;;;;;;6.76;59.49;100790.09;10365353;28;20237;-44
2022/11/13 04:39:31;;;;;;;31.43;21.27;;;;;;;6.66;59.15;100773.22;10377209;28;20256;-44
2022/11/13 04:44:33;;;;;;;31.57;22.33;;;;;;;7.18;58.96;100763.31;10356174;28;20746;-44
2022/11/13 04:49:35;;;;;;;33.93;22.00;;;;;;;6.67;60.08;100772.25;10362884;28;20236;-43
2022/11/13 04:54:36;;;;;;;37.80;23.03;;;;;;;6.86;59.98;100751.06;10357356;28;20240;-43
2022/11/13 04:59:38;;;;;;;29.83;20.50;;;;;;;6.74;59.13;100750.28;10357321;28;20225;-44
2022/11/13 05:04:39;;;;;;;40.47;20.87;;;;;;;6.73;57.56;100769.88;10357590;28;20247;-44
2022/11/13 05:09:41;;;;;;;33.23;21.50;;;;;;;7.38;57.39;100747.38;10364286;28;20648;-44
2022/11/13 05:14:43;;;;;;;37.17;21.77;;;;;;;6.85;59.35;100762.66;10354579;28;20241;-43
2022/11/13 05:19:45;;;;;;;33.90;21.17;;;;;;;5.98;59.52;100749.81;10363726;28;20243;-44
2022/11/13 05:24:46;;;;;;;35.60;21.20;;;;;;;6.22;59.52;100761.00;10356772;28;20245;-44
2022/11/13 05:29:48;;;;;;;37.73;23.33;;;;;;;6.68;59.43;100740.19;10362197;28;20225;-44
2022/11/13 05:34:49;;;;;;;41.97;23.83;;;;;;;6.60;59.64;100740.06;10362910;28;20702;-44
2022/11/13 05:39:51;;;;;;;40.57;24.37;;;;;;;6.25;59.51;100725.34;10356124;28;20240;-43
2022/11/13 05:44:53;;;;;;;38.87;22.13;;;;;;;5.92;59.91;100716.63;10341260;28;20237;-42
2022/11/13 05:49:54;;;;;;;43.20;23.27;;;;;;;6.54;58.83;100730.78;10354169;28;20226;-44
2022/11/13 05:54:56;;;;;;;44.13;24.87;;;;;;;6.27;59.64;100728.72;10359693;28;20711;-43
2022/11/13 05:59:58;;;;;;;46.73;24.17;;;;;;;6.88;59.34;100714.50;10362050;28;20368;-43
2022/11/13 06:04:59;;;;;;;37.73;22.50;;;;;;;6.79;58.71;100699.38;10358862;28;20308;-42
2022/11/13 06:10:01;;;;;;;45.10;23.70;;;;;;;5.69;59.87;100690.22;10354159;28;20618;-44
2022/11/13 06:15:03;;;;;;;40.07;22.30;;;;;;;7.03;58.27;100684.84;10356468;28;20237;-43
2022/11/13 06:20:05;;;;;;;37.00;21.63;;;;;;;6.45;58.37;100689.06;10363276;28;20220;-43
2022/11/13 06:25:07;;;;;;;36.13;21.57;;;;;;;6.50;59.60;100691.28;10364871;28;20313;-43
2022/11/13 06:30:09;;;;;;;38.77;21.77;;;;;;;7.29;58.27;100680.66;10368804;28;20661;-44
2022/11/13 06:35:11;;;;;;;33.63;21.30;;;;;;;7.63;56.81;100690.84;10363886;28;20249;-44
2022/11/13 06:40:13;;;;;;;40.80;21.33;;;;;;;7.52;57.75;100696.31;10365435;28;20233;-43
2022/11/13 06:45:14;;;;;;;46.63;24.23;;;;;;;7.81;56.99;100700.75;10371874;28;20236;-45
2022/11/13 06:50:16;;;;;;;54.60;25.73;;;;;;;6.39;59.09;100697.56;10359291;28;20752;-43
2022/11/13 06:55:17;;;;;;;50.50;24.70;;;;;;;7.50;57.47;100684.97;10357181;28;20245;-45
2022/11/13 07:00:19;;;;;;;41.03;24.47;;;;;;;7.09;58.42;100678.94;10361955;28;20228;-44
2022/11/13 07:05:21;;;;;;;41.67;24.07;;;;;;;5.87;59.30;100695.78;10361151;28;20241;-44
2022/11/13 07:10:23;;;;;;;46.20;25.33;;;;;;;7.08;58.37;100690.59;10357945;28;20236;-39
2022/11/13 07:15:25;;;;;;;37.13;22.73;;;;;;;6.62;59.07;100685.72;10345379;28;20257;-43
2022/11/13 07:20:26;;;;;;;38.67;21.90;;;;;;;6.66;58.83;100683.63;10360620;28;20261;-40
2022/11/13 07:25:29;;;;;;;38.80;24.63;;;;;;;6.07;60.12;100687.91;10363132;28;20233;-46
2022/11/13 07:30:31;;;;;;;40.50;22.87;;;;;;;5.71;60.72;100676.00;10362803;28;20255;-46
2022/11/13 07:35:32;;;;;;;36.47;21.43;;;;;;;5.98;60.33;100678.91;10370833;28;20909;-45
2022/11/13 07:40:34;;;;;;;33.40;21.70;;;;;;;7.42;57.15;100666.19;10361299;28;20232;-45
2022/11/13 07:45:36;;;;;;;39.47;21.83;;;;;;;6.62;58.95;100666.28;10364438;28;20722;-42
2022/11/13 07:50:38;;;;;;;34.67;22.57;;;;;;;6.05;60.46;100660.63;10366450;28;20237;-46
2022/11/13 07:55:40;;;;;;;35.13;23.43;;;;;;;6.83;59.05;100636.09;10364091;28;20253;-43
2022/11/13 08:00:41;;;;;;;32.70;20.87;;;;;;;6.44;59.04;100647.47;10370000;28;20237;-43
2022/11/13 08:05:43;;;;;;;36.90;22.50;;;;;;;6.10;59.61;100634.50;10375070;28;20322;-41
2022/11/13 08:10:45;;;;;;;32.43;21.00;;;;;;;4.70;62.01;100609.97;10364094;28;20741;-43
2022/11/13 08:15:46;;;;;;;35.73;21.13;;;;;;;7.68;56.81;100648.63;10370367;28;20488;-42
2022/11/13 08:20:48;;;;;;;31.20;19.77;;;;;;;6.97;57.87;100628.53;10366374;28;20245;-46
2022/11/13 08:25:50;;;;;;;267.80;148.67;;;;;;;6.06;59.49;100649.03;10364516;28;20240;-41
2022/11/13 08:30:51;;;;;;;153.50;87.03;;;;;;;6.84;58.58;100638.63;10366430;28;20237;-42
2022/11/13 08:35:58;;;;;;;44.17;36.10;;;;;;;5.69;59.65;100641.59;10354946;28;20324;-43
2022/11/13 08:41:03;;;;;;;33.70;24.20;;;;;;;5.33;61.44;100631.28;10351216;28;20236;-44
2022/11/13 08:46:09;;;;;;;32.13;22.17;;;;;;;6.72;59.00;100611.28;10374140;28;20234;-44
2022/11/13 08:51:11;;;;;;;77.87;52.13;;;;;;;6.59;58.78;100614.19;10362671;28;20307;-44
2022/11/13 08:56:13;;;;;;;46.60;31.50;;;;;;;7.23;58.14;100609.31;10371423;28;20239;-41
2022/11/13 09:01:15;;;;;;;33.50;24.47;;;;;;;6.22;58.90;100600.69;10366501;28;20232;-42
2022/11/13 09:06:17;;;;;;;36.43;28.37;;;;;;;6.42;58.78;100606.88;10361954;28;20757;-43
2022/11/13 09:11:19;;;;;;;30.40;24.17;;;;;;;7.21;57.86;100592.66;10365021;28;20241;-42
2022/11/13 09:16:20;;;;;;;26.20;20.07;;;;;;;7.31;57.38;100592.66;10366993;28;20229;-41
2022/11/13 09:21:22;;;;;;;23.40;18.80;;;;;;;6.21;58.99;100588.38;10367373;28;20734;-41
2022/11/13 09:26:24;;;;;;;32.37;26.13;;;;;;;6.47;58.21;100591.38;10368838;28;20244;-44
2022/11/13 09:31:25;;;;;;;37.13;27.63;;;;;;;6.77;57.70;100598.44;10366552;28;20236;-43
2022/11/13 09:36:27;;;;;;;34.43;29.97;;;;;;;6.57;58.46;100589.56;10373645;28;20699;-42
2022/11/13 09:41:36;;;;;;;41.87;37.27;;;;;;;6.53;57.60;100582.84;10363717;28;20256;-44
2022/11/13 09:46:43;;;;;;;56.97;50.23;;;;;;;6.99;58.10;100575.19;10358736;28;20244;-42
2022/11/13 09:51:55;;;;;;;27.03;24.33;;;;;;;7.58;57.56;100588.34;10364484;28;20233;-44
2022/11/13 09:57:24;;;;;;;22.93;18.03;;;;;;;8.73;55.88;100617.25;10364048;28;20233;-44
2022/11/13 10:02:53;;;;;;;21.07;16.33;;;;;;;6.94;58.09;100580.09;10356560;28;20299;-42
2022/11/13 10:08:16;;;;;;;16.30;13.73;;;;;;;7.18;57.86;100553.00;10352604;28;20233;-44
2022/11/13 10:13:24;;;;;;;17.67;13.13;;;;;;;6.84;58.66;100550.81;10358452;28;20227;-44
2022/11/13 10:18:32;;;;;;;16.07;13.40;;;;;;;6.89;58.08;100537.94;10348678;28;20245;-44
2022/11/13 10:23:36;;;;;;;19.17;13.47;;;;;;;6.92;58.71;100544.78;10360116;28;20229;-44
2022/11/13 10:28:39;;;;;;;15.50;12.40;;;;;;;7.92;56.57;100551.38;10351661;28;20233;-43
2022/11/13 10:33:56;;;;;;;14.40;11.40;;;;;;;7.31;56.84;100550.88;10348760;28;20236;-43
2022/11/13 10:39:03;;;;;;;15.17;11.50;;;;;;;8.11;55.40;100579.75;10351705;28;20229;-43
2022/11/13 10:44:17;;;;;;;14.13;12.10;;;;;;;7.47;55.66;100528.94;10361957;28;20747;-44
2022/11/13 10:49:25;;;;;;;20.93;15.23;;;;;;;8.07;56.87;100546.41;10350379;28;20838;-43
2022/11/13 10:54:30;;;;;;;21.17;15.10;;;;;;;6.97;58.87;100531.88;10344255;28;20260;-44
2022/11/13 10:59:40;;;;;;;35.10;23.53;;;;;;;7.30;57.81;100516.41;10355457;28;20241;-45
2022/11/13 11:06:10;;;;;;;34.63;21.30;;;;;;;5.44;63.66;100486.19;10494555;27;20317;-67
2022/11/13 11:16:37;;;;;;;48.43;31.60;;;;;;;6.37;60.79;100447.78;10438410;28;20374;-67
2022/11/13 11:21:41;;;;;;;20.63;15.67;;;;;;;7.54;59.02;100468.81;10443906;28;20231;-68
2022/11/13 11:26:45;;;;;;;26.83;18.40;;;;;;;6.66;59.35;100457.56;10435632;28;20492;-67
2022/11/13 11:31:56;;;;;;;24.77;16.30;;;;;;;7.31;59.20;100454.22;10444286;28;20230;-67
2022/11/13 11:37:13;;;;;;;20.40;14.33;;;;;;;7.70;58.12;100465.50;10379178;28;20244;-66
2022/11/13 11:42:37;;;;;;;27.60;20.93;;;;;;;7.22;59.08;100439.94;10438591;28;21002;-68
2022/11/13 11:47:39;;;;;;;18.20;14.37;;;;;;;7.67;58.32;100435.66;10402948;28;20767;-68
2022/11/13 11:53:02;;;;;;;17.47;12.50;;;;;;;8.16;57.91;100456.69;10404556;28;20274;-68
2022/11/13 11:58:21;;;;;;;18.30;14.23;;;;;;;7.58;57.40;100410.75;10414121;28;20262;-69
2022/11/13 12:03:44;;;;;;;16.30;12.57;;;;;;;7.59;57.52;100400.94;10412041;28;20233;-68
2022/11/13 12:09:23;;;;;;;13.57;11.17;;;;;;;6.95;58.80;100390.16;10414953;28;20246;-69
2022/11/13 12:14:30;;;;;;;13.37;10.97;;;;;;;8.74;55.89;100452.66;10401369;28;20677;-67
2022/11/13 12:20:07;;;;;;;14.53;12.47;;;;;;;8.30;57.49;100410.78;10379023;28;20465;-68
2022/11/13 12:25:55;;;;;;;12.70;11.20;;;;;;;9.14;55.14;100436.06;10365526;28;21247;-68
2022/11/13 12:31:18;;;;;;;12.87;10.03;;;;;;;9.01;55.48;100416.97;10246561;28;20241;-70
2022/11/13 12:36:21;;;;;;;10.83;9.23;;;;;;;8.39;55.56;100385.88;10388551;28;20232;-69
2022/11/13 12:41:42;;;;;;;11.63;8.93;;;;;;;9.16;54.28;100417.22;10422703;28;20240;-70
2022/11/13 12:46:45;;;;;;;11.67;9.63;;;;;;;9.56;54.40;100424.56;10367327;28;20248;-69
2022/11/13 12:52:00;;;;;;;9.90;8.90;;;;;;;8.91;54.98;100378.88;10367048;28;20248;-68
2022/11/13 12:57:23;;;;;;;9.97;8.20;;;;;;;8.66;54.22;100349.38;10381275;28;20237;-69
2022/11/13 13:02:49;;;;;;;14.07;11.20;;;;;;;9.05;53.98;100359.63;10396182;28;20251;-70
2022/11/13 13:07:54;;;;;;;10.43;8.03;;;;;;;9.45;52.99;100373.25;10404971;28;20282;-69
2022/11/13 13:13:03;;;;;;;9.80;7.70;;;;;;;8.99;52.45;100366.44;10423449;28;20240;-69
2022/11/13 13:18:10;;;;;;;10.30;7.40;;;;;;;10.32;51.20;100374.56;10405478;28;20244;-69
2022/11/13 13:23:24;;;;;;;8.23;7.13;;;;;;;10.62;50.95;100369.50;10408269;28;20720;-70
2022/11/13 13:28:26;;;;;;;8.00;6.60;;;;;;;10.50;50.99;100354.81;10411930;28;20236;-69
2022/11/13 13:33:40;;;;;;;9.13;6.83;;;;;;;10.45;50.50;100343.78;10406007;28;20246;-69
2022/11/13 13:39:07;;;;;;;8.20;6.70;;;;;;;10.46;50.24;100332.06;10402558;28;20237;-70
2022/11/13 13:44:31;;;;;;;8.87;6.47;;;;;;;10.15;51.09;100325.59;10385797;28;20236;-69
2022/11/13 13:49:32;;;;;;;7.77;6.87;;;;;;;10.36;51.25;100315.38;10401316;28;20239;-73
2022/11/13 13:54:35;;;;;;;9.03;7.10;;;;;;;11.04;49.97;100317.53;10406687;28;20253;-70
2022/11/13 13:59:37;;;;;;;9.67;6.57;;;;;;;9.25;51.78;100303.25;10412663;28;20244;-69
2022/11/13 14:04:45;;;;;;;8.97;6.47;;;;;;;10.34;51.18;100296.81;10404604;28;20232;-69
2022/11/13 14:09:46;;;;;;;8.10;6.30;;;;;;;10.32;50.33;100293.47;10419404;28;20310;-67
2022/11/13 14:14:48;;;;;;;8.20;6.60;;;;;;;9.96;50.58;100299.22;10411344;28;20236;-72
2022/11/13 14:19:55;;;;;;;8.10;6.30;;;;;;;9.93;50.64;100287.00;10401571;28;20387;-72
2022/11/13 14:24:59;;;;;;;8.50;6.50;;;;;;;10.49;50.33;100280.91;10407100;28;20231;-70
2022/11/13 14:30:02;;;;;;;8.03;5.77;;;;;;;10.01;51.22;100270.13;10408533;28;20236;-69
2022/11/13 14:35:04;;;;;;;9.13;6.80;;;;;;;10.18;50.46;100270.13;10400804;28;20239;-70
2022/11/13 14:40:37;;;;;;;7.53;6.07;;;;;;;11.11;49.50;100287.38;10403360;28;20232;-71
2022/11/13 14:45:38;;;;;;;9.27;7.00;;;;;;;9.73;50.74;100257.06;10392396;28;20712;-68
2022/11/13 14:50:50;;;;;;;8.73;6.40;;;;;;;11.26;48.70;100262.31;10402238;28;20297;-69
2022/11/13 14:55:54;;;;;;;13.37;10.00;;;;;;;12.00;48.16;100266.31;10398618;28;20243;-71
2022/11/13 15:00:57;;;;;;;9.63;7.27;;;;;;;10.32;50.35;100251.50;10399510;28;20235;-65
2022/11/13 15:05:59;;;;;;;9.97;7.77;;;;;;;11.54;48.45;100247.56;10402604;28;20236;-71
2022/11/13 15:11:01;;;;;;;8.27;6.70;;;;;;;12.07;47.59;100253.84;10406946;28;20849;-68
2022/11/13 15:16:03;;;;;;;8.53;6.63;;;;;;;11.23;48.07;100240.41;10401998;28;20283;-68
2022/11/13 15:21:05;;;;;;;9.53;7.03;;;;;;;11.37;48.62;100228.09;10416306;28;20771;-71
2022/11/13 15:26:09;;;;;;;9.27;6.30;;;;;;;11.31;48.66;100237.69;10418136;28;20297;-70
2022/11/13 15:31:27;;;;;;;9.13;6.93;;;;;;;11.48;48.59;100238.41;10405437;28;20238;-70
2022/11/13 15:36:30;;;;;;;12.37;7.47;;;;;;;11.54;49.08;100252.91;10412028;28;20236;-72
2022/11/13 15:41:33;;;;;;;11.07;8.47;;;;;;;11.67;48.42;100250.50;10412628;28;20242;-71
2022/11/13 15:46:34;;;;;;;10.47;7.83;;;;;;;11.15;49.70;100235.94;10412304;28;20231;-69
2022/11/13 15:51:38;;;;;;;13.27;9.97;;;;;;;11.00;50.67;100214.47;10416281;28;20224;-70
2022/11/13 15:56:40;;;;;;;26.00;21.13;;;;;;;11.83;49.19;100203.97;10410474;28;20234;-72
2022/11/13 16:01:42;;;;;;;17.00;14.17;;;;;;;8.01;54.96;100156.00;10411703;28;20235;-68
2022/11/13 16:06:44;;;;;;;15.10;12.53;;;;;;;7.78;56.25;100187.69;10409608;28;20236;-70
2022/11/13 16:11:46;;;;;;;11.70;10.50;;;;;;;8.58;55.26;100181.28;10408153;28;20348;-69
2022/11/13 16:16:49;;;;;;;15.23;13.67;;;;;;;7.11;57.64;100169.50;10405146;28;20243;-72
2022/11/13 16:21:52;;;;;;;12.33;11.13;;;;;;;6.95;58.57;100166.66;10411055;28;20224;-70
2022/11/13 16:26:57;;;;;;;13.43;11.53;;;;;;;7.44;57.25;100140.50;10415287;28;20312;-69
2022/11/13 16:31:58;;;;;;;14.80;12.80;;;;;;;7.00;57.83;100143.09;10410926;28;20246;-66
2022/11/13 16:37:00;;;;;;;14.77;12.87;;;;;;;6.90;57.46;100142.34;10416527;28;20232;-68
2022/11/13 16:42:02;;;;;;;14.37;12.67;;;;;;;8.09;55.84;100102.75;10409052;28;20237;-67
2022/11/13 16:47:24;;;;;;;15.77;13.40;;;;;;;8.27;54.49;100100.00;10413165;28;20243;-69
2022/11/13 16:52:26;;;;;;;17.70;15.20;;;;;;;8.13;56.06;100092.59;10393218;28;20236;-67
2022/11/13 16:57:28;;;;;;;16.67;13.93;;;;;;;6.88;58.24;100129.19;10410774;28;20612;-67
2022/11/13 17:02:30;;;;;;;18.33;15.80;;;;;;;7.55;57.02;100094.94;10413609;28;20262;-67
2022/11/13 17:07:31;;;;;;;18.10;14.67;;;;;;;7.44;56.51;100123.66;10406584;28;20650;-66
2022/11/13 17:12:33;;;;;;;19.00;15.20;;;;;;;7.98;56.52;100078.22;10406724;28;20216;-66
2022/11/13 17:17:35;;;;;;;18.67;15.33;;;;;;;7.51;56.66;100104.25;10409850;28;20224;-68
2022/11/13 17:22:36;;;;;;;19.17;15.60;;;;;;;6.48;59.54;100093.19;10404859;28;20262;-67
2022/11/13 17:27:38;;;;;;;17.23;15.30;;;;;;;7.30;57.69;100074.47;10396630;28;20270;-70
2022/11/13 17:32:39;;;;;;;17.93;15.97;;;;;;;7.70;56.90;100065.91;10406767;28;20279;-71
2022/11/13 17:37:41;;;;;;;19.90;15.97;;;;;;;7.95;55.57;100067.88;10399088;28;20609;-70
2022/11/13 17:42:46;;;;;;;22.70;16.80;;;;;;;5.62;61.20;100082.81;10414756;28;20708;-72
2022/11/13 17:47:48;;;;;;;24.43;16.10;;;;;;;6.87;59.19;100071.66;10417960;28;20318;-70
2022/11/13 17:52:50;;;;;;;21.10;16.20;;;;;;;7.12;58.55;100069.19;10406418;28;20246;-69
2022/11/13 17:57:52;;;;;;;22.97;16.63;;;;;;;8.02;56.33;100043.09;10404115;28;20298;-70
2022/11/13 18:02:56;;;;;;;21.43;15.83;;;;;;;6.78;58.62;100075.22;10404324;28;20229;-70
2022/11/13 18:07:58;;;;;;;21.97;16.37;;;;;;;6.52;59.47;100086.59;10410473;28;20244;-71
2022/11/13 18:13:00;;;;;;;20.23;15.80;;;;;;;7.26;58.17;100042.03;10408788;28;20290;-69
2022/11/13 18:18:04;;;;;;;20.53;15.77;;;;;;;7.34;57.13;100052.72;10413919;28;20232;-71
2022/11/13 18:23:05;;;;;;;20.20;16.13;;;;;;;6.89;58.33;100047.56;10400338;28;20239;-68
2022/11/13 18:28:07;;;;;;;21.57;16.57;;;;;;;7.83;57.01;100011.34;10408744;28;20274;-66
2022/11/13 18:33:09;;;;;;;21.07;16.37;;;;;;;6.96;57.18;100046.78;10408260;28;21402;-66
2022/11/13 18:38:11;;;;;;;22.03;16.90;;;;;;;5.95;58.91;100067.34;10399949;28;20298;-68
2022/11/13 18:43:14;;;;;;;21.30;16.40;;;;;;;7.54;57.41;100025.88;10408971;28;20239;-65
2022/11/13 18:48:15;;;;;;;24.00;17.23;;;;;;;7.00;57.08;100068.59;10405752;28;20232;-68
2022/11/13 18:53:17;;;;;;;22.10;16.50;;;;;;;8.35;54.88;100034.34;10387730;28;20231;-66
2022/11/13 18:58:19;;;;;;;20.13;16.00;;;;;;;9.20;53.43;100052.78;10395941;28;20290;-66
2022/11/13 19:03:22;;;;;;;20.53;15.70;;;;;;;8.23;55.13;100052.47;10398969;28;20239;-65
2022/11/13 19:08:24;;;;;;;22.87;16.37;;;;;;;9.50;52.94;100053.88;10396847;28;20228;-66
2022/11/13 19:13:26;;;;;;;21.27;15.23;;;;;;;8.19;55.41;100070.63;10400333;28;20291;-67
2022/11/13 19:18:27;;;;;;;19.90;14.37;;;;;;;6.59;57.70;100077.00;10396598;28;20743;-66
2022/11/13 19:23:30;;;;;;;18.90;15.57;;;;;;;8.99;53.46;100048.78;10397966;28;20290;-68
2022/11/13 19:28:34;;;;;;;22.37;16.97;;;;;;;8.59;53.73;100046.88;10406021;28;21009;-68
2022/11/13 19:33:41;;;;;;;20.27;15.43;;;;;;;9.65;52.04;100061.19;10403210;28;20232;-68
2022/11/13 19:38:43;;;;;;;19.50;14.90;;;;;;;8.42;53.70;100070.88;10415237;28;20312;-70
2022/11/13 19:43:46;;;;;;;18.93;14.77;;;;;;;8.67;54.02;100071.75;10410371;28;20246;-68
2022/11/13 19:48:49;;;;;;;18.77;14.63;;;;;;;7.95;55.97;100071.38;10418827;28;20240;-69
2022/11/13 19:53:55;;;;;;;19.43;15.30;;;;;;;7.74;55.78;100082.41;10410053;28;20302;-69
2022/11/13 19:58:57;;;;;;;20.43;15.10;;;;;;;7.66;56.60;100061.91;10412632;28;20228;-72
2022/11/13 20:04:01;;;;;;;22.37;16.07;;;;;;;8.42;55.21;100049.53;10425104;28;20290;-69
2022/11/13 20:09:03;;;;;;;20.40;15.97;;;;;;;7.73;55.03;100073.59;10408189;28;20752;-69
2022/11/13 20:14:04;;;;;;;18.73;15.43;;;;;;;8.33;54.75;100045.16;10413144;28;20229;-67
2022/11/13 20:19:06;;;;;;;21.60;17.00;;;;;;;8.69;53.99;100039.59;10417889;28;20767;-66
2022/11/13 20:24:08;;;;;;;19.53;15.40;;;;;;;8.55;54.66;100058.88;10415759;28;20701;-68
2022/11/13 20:29:10;;;;;;;19.57;16.23;;;;;;;7.27;56.68;100080.94;10416657;28;20241;-68
2022/11/13 20:34:13;;;;;;;18.77;15.30;;;;;;;8.20;55.34;100068.78;10418832;28;20576;-67
2022/11/13 20:39:15;;;;;;;18.23;14.47;;;;;;;8.78;54.19;100041.25;10405574;28;20231;-68
2022/11/13 20:44:16;;;;;;;18.77;14.63;;;;;;;7.26;56.99;100081.13;10419739;28;20259;-69
2022/11/13 20:49:18;;;;;;;20.50;15.20;;;;;;;8.24;55.65;100043.50;10411151;28;20232;-74
2022/11/13 20:54:20;;;;;;;19.77;15.10;;;;;;;8.20;55.50;100060.81;10409360;28;20725;-67
2022/11/13 20:59:22;;;;;;;20.70;15.47;;;;;;;8.37;55.00;100035.88;10397878;28;20242;-68
2022/11/13 21:04:23;;;;;;;21.87;16.53;;;;;;;8.79;53.68;100029.56;10385993;28;20290;-70
2022/11/13 21:09:25;;;;;;;18.83;15.37;;;;;;;9.52;52.71;100059.06;10404848;28;20251;-68
2022/11/13 21:14:27;;;;;;;19.07;14.57;;;;;;;8.22;54.52;100074.81;10406426;28;20238;-73
2022/11/13 21:19:28;;;;;;;18.70;14.90;;;;;;;9.19;52.33;100062.59;10407153;28;20244;-71
2022/11/13 21:24:30;;;;;;;20.80;15.13;;;;;;;8.10;55.20;100085.78;10409274;28;20298;-76
2022/11/13 21:29:32;;;;;;;20.93;15.50;;;;;;;9.13;53.37;100060.63;10407741;28;20245;-71
2022/11/13 21:34:33;;;;;;;19.10;14.67;;;;;;;9.39;52.46;100063.06;10414540;28;20231;-71
2022/11/13 21:39:35;;;;;;;19.90;15.37;;;;;;;8.00;55.42;100079.75;10411068;28;20260;-70
2022/11/13 21:44:37;;;;;;;20.67;15.33;;;;;;;9.34;52.90;100046.72;10407914;28;20232;-70
2022/11/13 21:49:38;;;;;;;21.03;14.73;;;;;;;9.23;52.88;100033.75;10386656;28;20246;-70
2022/11/13 21:54:40;;;;;;;22.37;15.97;;;;;;;9.46;51.74;100017.81;10386554;28;20328;-70
2022/11/13 21:59:42;;;;;;;21.10;14.70;;;;;;;9.99;50.92;100015.50;10413228;28;20297;-70
2022/11/13 22:04:43;;;;;;;18.60;14.97;;;;;;;9.57;51.99;100032.66;10408677;28;20263;-70
2022/11/13 22:09:45;;;;;;;20.33;14.33;;;;;;;9.98;50.85;100029.03;10408253;28;20301;-72
2022/11/13 22:14:47;;;;;;;19.53;14.87;;;;;;;9.51;52.24;100047.53;10414618;28;20220;-71
2022/11/13 22:19:48;;;;;;;20.93;14.73;;;;;;;8.39;54.25;100055.19;10412224;28;20868;-70
2022/11/13 22:24:50;;;;;;;19.77;14.43;;;;;;;8.34;54.22;100036.19;10412340;28;20293;-72
2022/11/13 22:29:52;;;;;;;19.00;13.87;;;;;;;8.47;55.40;100001.88;10406623;28;20246;-70
2022/11/13 22:34:54;;;;;;;20.93;15.90;;;;;;;7.69;56.27;100032.25;10405692;28;20283;-70
2022/11/13 22:39:56;;;;;;;18.50;14.70;;;;;;;7.72;56.44;100015.13;10404715;28;20240;-71
2022/11/13 22:44:57;;;;;;;17.23;13.13;;;;;;;6.71;58.55;99984.53;10411560;28;20249;-70
2022/11/13 22:49:59;;;;;;;16.97;13.50;;;;;;;8.32;55.35;99957.34;10410058;28;20239;-70
2022/11/13 22:55:01;;;;;;;16.20;12.60;;;;;;;8.46;54.40;99951.38;10410811;28;20235;-71
2022/11/13 23:00:08;;;;;;;16.60;12.67;;;;;;;8.71;53.62;99968.22;10415850;28;20240;-70
2022/11/13 23:05:09;;;;;;;17.47;13.77;;;;;;;8.73;53.58;99952.03;10409851;28;20278;-74
2022/11/13 23:10:11;;;;;;;15.57;12.60;;;;;;;8.36;54.46;99954.19;10414437;28;20240;-70